createdAt,value
2018-05-31T00:01:14.311Z,12.30
2018-05-31T00:03:42.920Z,13.53
2018-05-31T00:06:11.794Z,13.83
2018-05-31T00:08:39.970Z,12.03
2018-05-31T00:11:08.159Z,12.10
2018-05-31T00:13:36.706Z,11.63
2018-05-31T00:16:05.270Z,12.60
2018-05-31T00:18:33.654Z,15.50
2018-05-31T00:21:01.846Z,12.23
2018-05-31T00:23:30.036Z,15.43
2018-05-31T00:25:59.163Z,10.83
2018-05-31T00:28:27.759Z,12.67
2018-05-31T00:30:56.737Z,15.97
2018-05-31T00:33:25.158Z,12.13
2018-05-31T00:35:54.078Z,13.90
2018-05-31T00:38:22.523Z,13.13
2018-05-31T00:40:50.945Z,15.20
2018-05-31T00:43:19.090Z,14.63
2018-05-31T00:45:47.683Z,15.03
2018-05-31T00:48:15.853Z,11.80
2018-05-31T00:50:44.943Z,13.40
2018-05-31T00:53:13.364Z,14.00
2018-05-31T00:55:55.782Z,15.07
2018-05-31T00:58:23.963Z,13.60
2018-05-31T01:00:52.828Z,17.70
2018-05-31T01:03:21.361Z,12.50
2018-05-31T01:05:49.955Z,16.03
2018-05-31T01:08:18.621Z,14.40
2018-05-31T01:10:47.555Z,14.43
2018-05-31T01:13:15.747Z,14.37
2018-05-31T01:15:44.918Z,12.23
2018-05-31T01:18:13.114Z,16.00
2018-05-31T01:20:42.573Z,13.03
2018-05-31T01:23:10.768Z,12.37
2018-05-31T01:25:38.955Z,13.27
2018-05-31T01:28:07.906Z,10.63
2018-05-31T01:30:36.395Z,14.77
2018-05-31T01:33:06.282Z,13.87
2018-05-31T01:35:35.223Z,11.70
2018-05-31T01:38:16.166Z,15.23
2018-05-31T01:40:44.354Z,15.30
2018-05-31T01:43:12.902Z,15.27
2018-05-31T01:45:41.094Z,13.23
2018-05-31T01:48:09.759Z,14.77
2018-05-31T01:50:38.806Z,11.77
2018-05-31T01:53:07.436Z,13.70
2018-05-31T01:55:36.895Z,10.90
2018-05-31T01:58:05.428Z,14.93
2018-05-31T02:00:34.058Z,14.07
2018-05-31T02:03:02.223Z,10.97
2018-05-31T02:05:30.764Z,15.03
2018-05-31T02:07:58.998Z,12.93
2018-05-31T02:10:27.191Z,12.57
2018-05-31T02:12:55.747Z,11.13
2018-05-31T02:15:23.894Z,11.47
2018-05-31T02:17:54.995Z,12.17
2018-05-31T02:20:23.815Z,17.30
2018-05-31T02:22:52.239Z,12.40
2018-05-31T02:25:21.332Z,12.83
2018-05-31T02:27:49.895Z,14.47
2018-05-31T02:30:18.978Z,12.43
2018-05-31T02:32:47.158Z,14.97
2018-05-31T02:35:15.351Z,13.63
2018-05-31T02:37:44.760Z,14.67
2018-05-31T02:40:12.950Z,13.23
2018-05-31T02:42:41.506Z,14.67
2018-05-31T02:45:10.162Z,16.87
2018-05-31T02:47:38.438Z,15.03
2018-05-31T02:50:07.047Z,13.20
2018-05-31T02:52:35.710Z,14.07
2018-05-31T02:55:04.136Z,13.10
2018-05-31T02:57:32.291Z,13.03
2018-05-31T03:00:00.830Z,15.37
2018-05-31T03:02:29.698Z,14.17
2018-05-31T03:04:58.249Z,14.23
2018-05-31T03:07:27.491Z,15.47
2018-05-31T03:09:56.854Z,13.53
2018-05-31T03:12:25.012Z,14.50
2018-05-31T03:14:53.891Z,12.43
2018-05-31T03:17:22.638Z,13.80
2018-05-31T03:19:50.799Z,12.83
2018-05-31T03:22:19.795Z,12.70
2018-05-31T03:24:48.319Z,12.73
2018-05-31T03:27:16.489Z,13.73
2018-05-31T03:29:45.057Z,15.03
2018-05-31T03:32:13.219Z,14.03
2018-05-31T03:34:41.680Z,14.20
2018-05-31T03:37:10.009Z,14.80
2018-05-31T03:39:38.171Z,16.00
2018-05-31T03:42:06.816Z,14.50
2018-05-31T03:44:35.690Z,13.00
2018-05-31T03:47:04.224Z,17.63
2018-05-31T03:49:32.741Z,19.10
2018-05-31T03:52:00.903Z,14.27
2018-05-31T03:54:29.550Z,15.93
2018-05-31T03:56:57.979Z,14.03
2018-05-31T03:59:26.635Z,13.63
2018-05-31T04:01:56.698Z,14.50
2018-05-31T04:04:25.149Z,14.10
2018-05-31T04:06:53.310Z,14.57
2018-05-31T04:09:21.959Z,13.30
2018-05-31T04:11:52.391Z,13.63
2018-05-31T04:14:21.028Z,15.77
2018-05-31T04:16:50.182Z,15.13
2018-05-31T04:19:19.120Z,13.67
2018-05-31T04:21:47.319Z,14.13
2018-05-31T04:24:15.931Z,17.43
2018-05-31T04:26:44.126Z,13.60
2018-05-31T04:29:12.318Z,14.43
2018-05-31T04:31:40.916Z,16.97
2018-05-31T04:34:09.547Z,18.33
2018-05-31T04:36:38.176Z,13.33
2018-05-31T04:39:06.694Z,19.37
2018-05-31T04:41:35.843Z,15.07
2018-05-31T04:44:04.067Z,17.63
2018-05-31T04:46:32.697Z,16.23
2018-05-31T04:49:01.328Z,15.80
2018-05-31T04:51:29.969Z,16.97
2018-05-31T04:53:58.122Z,13.00
2018-05-31T04:56:26.695Z,15.90
2018-05-31T04:58:54.873Z,15.23
2018-05-31T05:01:23.051Z,14.80
2018-05-31T05:03:52.004Z,14.67
2018-05-31T05:06:20.590Z,16.60
2018-05-31T05:08:49.739Z,14.33
2018-05-31T05:11:18.268Z,14.77
2018-05-31T05:13:46.898Z,15.40
2018-05-31T05:16:15.062Z,15.47
2018-05-31T05:18:43.250Z,14.70
2018-05-31T05:21:11.848Z,15.77
2018-05-31T05:23:40.065Z,17.90
2018-05-31T05:26:09.109Z,13.33
2018-05-31T05:28:38.267Z,15.23
2018-05-31T05:31:06.863Z,12.07
2018-05-31T05:33:35.407Z,13.03
2018-05-31T05:36:04.011Z,14.70
2018-05-31T05:38:32.573Z,11.63
2018-05-31T05:41:01.204Z,12.47
2018-05-31T05:43:29.845Z,12.17
2018-05-31T05:45:58.255Z,11.67
2018-05-31T05:48:27.302Z,9.83
2018-05-31T05:50:55.692Z,14.57
2018-05-31T05:53:23.875Z,11.30
2018-05-31T05:55:53.795Z,14.50
2018-05-31T05:58:22.659Z,13.33
2018-05-31T06:00:51.985Z,15.50
2018-05-31T06:03:20.179Z,15.77
2018-05-31T06:05:49.702Z,20.40
2018-05-31T06:08:18.923Z,16.87
2018-05-31T06:10:47.106Z,14.97
2018-05-31T06:13:15.371Z,13.67
2018-05-31T06:15:43.805Z,14.27
2018-05-31T06:18:11.959Z,8.33
2018-05-31T06:20:40.139Z,8.97
2018-05-31T06:23:08.318Z,7.37
2018-05-31T06:25:36.756Z,9.77
2018-05-31T06:28:05.284Z,9.50
2018-05-31T06:30:33.875Z,6.13
2018-05-31T06:33:02.751Z,7.80
2018-05-31T06:35:31.905Z,9.83
2018-05-31T06:38:00.081Z,14.33
2018-05-31T06:40:29.255Z,12.07
2018-05-31T06:42:57.888Z,16.03
2018-05-31T06:45:26.306Z,21.87
2018-05-31T06:47:54.742Z,15.30
2018-05-31T06:50:22.891Z,13.03
2018-05-31T06:52:51.548Z,9.47
2018-05-31T06:55:20.354Z,8.20
2018-05-31T06:57:48.844Z,5.40
2018-05-31T07:00:17.003Z,7.07
2018-05-31T07:02:45.582Z,9.20
2018-05-31T07:05:14.658Z,5.00
2018-05-31T07:07:44.095Z,8.10
2018-05-31T07:10:12.516Z,7.73
2018-05-31T07:12:41.773Z,5.90
2018-05-31T07:15:10.703Z,6.47
2018-05-31T07:17:38.889Z,6.87
2018-05-31T07:20:07.085Z,9.63
2018-05-31T07:22:36.071Z,5.23
2018-05-31T07:25:04.507Z,7.77
2018-05-31T07:27:33.544Z,8.10
2018-05-31T07:30:01.723Z,6.67
2018-05-31T07:32:30.259Z,7.57
2018-05-31T07:34:59.222Z,7.27
2018-05-31T07:37:27.657Z,8.33
2018-05-31T07:39:57.646Z,7.63
2018-05-31T07:42:26.276Z,6.53
2018-05-31T07:44:54.758Z,6.03
2018-05-31T07:47:23.222Z,7.27
2018-05-31T07:49:51.815Z,7.00
2018-05-31T07:52:20.238Z,5.57
2018-05-31T07:54:48.866Z,6.33
2018-05-31T07:57:17.046Z,7.57
2018-05-31T07:59:45.615Z,6.10
2018-05-31T08:02:14.783Z,7.60
2018-05-31T08:04:42.967Z,9.33
2018-05-31T08:07:11.637Z,6.30
2018-05-31T08:09:40.043Z,8.90
2018-05-31T08:12:08.479Z,8.07
2018-05-31T08:14:36.750Z,6.00
2018-05-31T08:17:04.931Z,5.53
2018-05-31T08:19:34.266Z,7.93
2018-05-31T08:22:03.627Z,8.30
2018-05-31T08:24:31.798Z,7.47
2018-05-31T08:26:59.975Z,7.73
2018-05-31T08:29:28.926Z,6.63
2018-05-31T08:31:57.416Z,4.90
2018-05-31T08:34:25.943Z,6.93
2018-05-31T08:36:54.771Z,5.97
2018-05-31T08:39:22.950Z,5.33
2018-05-31T08:41:51.415Z,4.27
2018-05-31T08:44:20.122Z,5.50
2018-05-31T08:46:48.676Z,6.80
2018-05-31T08:49:16.947Z,5.53
2018-05-31T08:51:45.413Z,5.73
2018-05-31T08:54:14.043Z,4.10
2018-05-31T08:56:42.674Z,3.50
2018-05-31T08:59:11.062Z,5.80
2018-05-31T09:01:39.898Z,5.77
2018-05-31T09:04:09.283Z,4.83
2018-05-31T09:06:37.823Z,6.03
2018-05-31T09:09:06.242Z,6.33
2018-05-31T09:11:34.664Z,4.10
2018-05-31T09:14:03.699Z,5.77
2018-05-31T09:16:32.133Z,6.57
2018-05-31T09:19:00.764Z,6.07
2018-05-31T09:21:29.290Z,5.20
2018-05-31T09:23:57.883Z,7.80
2018-05-31T09:26:26.060Z,5.40
2018-05-31T09:28:54.762Z,4.93
2018-05-31T09:31:23.211Z,7.20
2018-05-31T09:33:52.651Z,6.93
2018-05-31T09:36:21.474Z,8.80
2018-05-31T09:38:49.658Z,6.10
2018-05-31T09:41:18.540Z,11.00
2018-05-31T09:43:46.706Z,10.00
2018-05-31T09:46:14.887Z,9.37
2018-05-31T09:48:44.078Z,8.07
2018-05-31T09:51:13.268Z,9.17
2018-05-31T09:53:42.526Z,7.13
2018-05-31T09:56:11.781Z,8.67
2018-05-31T09:58:40.923Z,10.00
2018-05-31T10:01:10.359Z,9.13
2018-05-31T10:03:39.870Z,8.70
2018-05-31T10:06:08.176Z,9.43
2018-05-31T10:08:36.814Z,5.60
2018-05-31T10:11:05.639Z,11.03
2018-05-31T10:13:34.061Z,7.90
2018-05-31T10:16:03.215Z,8.30
2018-05-31T10:18:31.856Z,8.80
2018-05-31T10:21:00.802Z,7.83
2018-05-31T10:23:29.747Z,12.73
2018-05-31T10:25:57.922Z,12.27
2018-05-31T10:28:27.515Z,13.93
2018-05-31T10:30:55.707Z,13.57
2018-05-31T10:33:24.368Z,11.07
2018-05-31T10:35:52.895Z,11.60
2018-05-31T10:38:21.103Z,7.77
2018-05-31T10:40:49.530Z,10.53
2018-05-31T10:43:18.354Z,9.97
2018-05-31T10:45:47.001Z,6.80
2018-05-31T10:48:15.931Z,5.87
2018-05-31T10:50:44.363Z,6.00
2018-05-31T10:53:12.959Z,8.17
2018-05-31T10:55:42.041Z,10.00
2018-05-31T10:58:10.227Z,10.07
2018-05-31T11:00:39.182Z,7.90
2018-05-31T11:03:08.443Z,7.43
2018-05-31T11:05:37.710Z,8.57
2018-05-31T11:08:06.306Z,7.77
2018-05-31T11:10:34.865Z,10.00
2018-05-31T11:13:03.072Z,6.67
2018-05-31T11:15:31.604Z,7.73
2018-05-31T11:18:00.757Z,9.40
2018-05-31T11:20:28.903Z,8.93
2018-05-31T11:22:57.095Z,11.60
2018-05-31T11:25:26.334Z,9.13
2018-05-31T11:27:55.477Z,11.10
2018-05-31T11:30:24.116Z,9.43
2018-05-31T11:32:52.294Z,9.10
2018-05-31T11:35:20.959Z,10.70
2018-05-31T11:37:49.111Z,7.43
2018-05-31T11:40:17.294Z,8.33
2018-05-31T11:42:45.876Z,12.47
2018-05-31T11:45:14.055Z,11.03
2018-05-31T11:47:43.265Z,9.37
2018-05-31T11:50:12.009Z,10.43
2018-05-31T11:52:41.151Z,10.83
2018-05-31T11:55:11.149Z,9.17
2018-05-31T11:57:39.780Z,13.60
2018-05-31T12:00:08.482Z,13.83
2018-05-31T12:02:37.980Z,12.27
2018-05-31T12:05:06.158Z,15.60
2018-05-31T12:07:34.718Z,18.10
2018-05-31T12:10:04.155Z,10.57
2018-05-31T12:12:32.709Z,14.30
2018-05-31T12:15:01.657Z,15.30
2018-05-31T12:17:30.915Z,14.10
2018-05-31T12:19:59.540Z,10.90
2018-05-31T12:22:28.067Z,11.30
2018-05-31T12:24:56.219Z,14.57
2018-05-31T12:27:24.699Z,13.23
2018-05-31T12:29:53.956Z,12.33
2018-05-31T12:32:22.110Z,12.73
2018-05-31T12:34:51.100Z,16.63
2018-05-31T12:37:19.963Z,14.70
2018-05-31T12:39:50.660Z,19.60
2018-05-31T12:42:18.850Z,27.03
2018-05-31T12:44:47.042Z,23.70
2018-05-31T12:47:15.267Z,16.60
2018-05-31T12:49:43.665Z,12.47
2018-05-31T12:52:12.138Z,16.40
2018-05-31T12:54:41.825Z,17.33
2018-05-31T12:57:10.339Z,17.73
2018-05-31T12:59:38.980Z,11.83
2018-05-31T13:02:07.401Z,13.80
2018-05-31T13:04:36.971Z,16.07
2018-05-31T13:07:05.394Z,20.90
2018-05-31T13:09:33.814Z,16.03
2018-05-31T13:12:02.645Z,16.23
2018-05-31T13:14:30.855Z,20.03
2018-05-31T13:16:59.286Z,15.40
2018-05-31T13:19:27.813Z,16.60
2018-05-31T13:21:57.173Z,13.50
2018-05-31T13:24:25.664Z,15.50
2018-05-31T13:26:55.650Z,17.70
2018-05-31T13:29:23.838Z,17.60
2018-05-31T13:31:53.439Z,12.50
2018-05-31T13:34:22.063Z,15.53
2018-05-31T13:36:50.258Z,15.00
2018-05-31T13:39:18.942Z,15.20
2018-05-31T13:41:47.468Z,14.93
2018-05-31T13:44:15.995Z,15.83
2018-05-31T13:46:44.203Z,14.03
2018-05-31T13:49:12.719Z,17.20
2018-05-31T13:51:41.773Z,13.80
2018-05-31T13:54:09.958Z,18.83
2018-05-31T13:56:38.146Z,15.90
2018-05-31T13:59:06.836Z,14.00
2018-05-31T14:01:34.990Z,13.80
2018-05-31T14:04:03.678Z,16.30
2018-05-31T14:06:32.274Z,14.43
2018-05-31T14:09:00.803Z,16.73
2018-05-31T14:11:29.255Z,12.73
2018-05-31T14:13:57.989Z,12.50
2018-05-31T14:16:26.147Z,10.17
2018-05-31T14:18:55.238Z,14.40
2018-05-31T14:21:23.880Z,19.57
2018-05-31T14:23:52.711Z,16.87
2018-05-31T14:26:23.218Z,11.77
2018-05-31T14:28:51.835Z,10.73
2018-05-31T14:31:20.019Z,14.77
2018-05-31T14:33:48.597Z,13.10
2018-05-31T14:36:16.746Z,13.63
2018-05-31T14:38:44.937Z,12.23
2018-05-31T14:41:14.906Z,18.10
2018-05-31T14:43:43.436Z,21.90
2018-05-31T14:46:11.960Z,19.53
2018-05-31T14:48:40.107Z,15.27
2018-05-31T14:51:09.155Z,15.37
2018-05-31T14:53:37.744Z,17.03
2018-05-31T14:56:06.060Z,20.97
2018-05-31T14:58:34.214Z,16.90
2018-05-31T15:01:02.799Z,17.10
2018-05-31T15:03:31.008Z,14.80
2018-05-31T15:06:00.363Z,14.40
2018-05-31T15:08:29.003Z,13.43
2018-05-31T15:10:57.424Z,12.80
2018-05-31T15:13:27.423Z,19.77
2018-05-31T15:15:56.013Z,11.90
2018-05-31T15:18:24.568Z,18.23
2018-05-31T15:20:52.723Z,13.13
2018-05-31T15:23:20.942Z,15.30
2018-05-31T15:25:49.518Z,15.13
2018-05-31T15:28:17.706Z,13.43
2018-05-31T15:30:46.242Z,12.80
2018-05-31T15:33:14.782Z,12.97
2018-05-31T15:35:43.378Z,11.67
2018-05-31T15:38:12.046Z,12.63
2018-05-31T15:40:40.195Z,11.33
2018-05-31T15:43:08.780Z,9.63
2018-05-31T15:45:38.664Z,8.63
2018-05-31T15:48:08.130Z,9.87
2018-05-31T15:50:37.171Z,13.53
2018-05-31T15:53:05.808Z,12.20
2018-05-31T15:55:33.971Z,10.87
2018-05-31T15:58:03.032Z,8.60
2018-05-31T16:00:32.123Z,7.47
2018-05-31T16:05:23.722Z,9.27
2018-05-31T16:07:52.331Z,11.40
2018-05-31T16:10:21.103Z,10.47
2018-05-31T16:12:49.732Z,11.83
2018-05-31T16:15:17.922Z,13.00
2018-05-31T16:17:46.102Z,15.60
2018-05-31T16:20:14.577Z,17.37
2018-05-31T16:22:43.524Z,14.47
2018-05-31T16:25:12.151Z,18.23
2018-05-31T16:27:41.200Z,13.50
2018-05-31T16:30:09.832Z,13.37
2018-05-31T16:32:38.970Z,10.77
2018-05-31T16:35:07.657Z,14.63
2018-05-31T16:37:36.231Z,13.10
2018-05-31T16:40:04.872Z,14.43
2018-05-31T16:42:33.074Z,14.93
2018-05-31T16:45:01.679Z,15.53
2018-05-31T16:47:30.346Z,18.80
2018-05-31T16:49:58.870Z,14.53
2018-05-31T16:52:28.012Z,14.00
2018-05-31T16:54:56.549Z,20.63
2018-05-31T16:57:24.970Z,12.03
2018-05-31T16:59:53.600Z,15.57
2018-05-31T17:02:21.770Z,14.77
2018-05-31T17:04:50.014Z,13.53
2018-05-31T17:07:18.856Z,22.33
2018-05-31T17:09:47.050Z,15.83
2018-05-31T17:12:15.707Z,18.43
2018-05-31T17:14:43.871Z,18.20
2018-05-31T17:17:12.129Z,18.60
2018-05-31T17:19:41.701Z,15.43
2018-05-31T17:22:09.874Z,15.27
2018-05-31T17:24:38.545Z,12.80
2018-05-31T17:27:07.175Z,15.30
2018-05-31T17:29:36.314Z,19.03
2018-05-31T17:32:05.584Z,17.63
2018-05-31T17:34:35.571Z,14.33
2018-05-31T17:37:04.379Z,18.53
2018-05-31T17:39:33.563Z,18.43
2018-05-31T17:42:02.540Z,18.10
2018-05-31T17:44:30.727Z,11.43
2018-05-31T17:47:00.497Z,12.23
2018-05-31T17:49:28.919Z,8.87
2018-05-31T17:51:58.410Z,9.47
2018-05-31T17:54:27.643Z,9.60
2018-05-31T17:56:55.811Z,12.53
2018-05-31T17:59:24.811Z,12.37
2018-05-31T18:01:53.950Z,11.17
2018-05-31T18:04:23.417Z,8.53
2018-05-31T18:06:52.559Z,10.00
2018-05-31T18:09:20.976Z,9.40
2018-05-31T18:11:49.620Z,15.63
2018-05-31T18:14:17.779Z,14.83
2018-05-31T18:16:45.960Z,12.10
2018-05-31T18:19:15.929Z,12.00
2018-05-31T18:21:45.081Z,16.83
2018-05-31T18:24:15.063Z,15.50
2018-05-31T18:26:44.290Z,15.07
2018-05-31T18:29:13.362Z,12.87
2018-05-31T18:31:41.577Z,13.53
2018-05-31T18:34:10.179Z,13.10
2018-05-31T18:36:39.264Z,15.03
2018-05-31T18:39:07.685Z,11.73
2018-05-31T18:41:35.847Z,10.27
2018-05-31T18:44:04.638Z,12.57
2018-05-31T18:46:33.459Z,9.93
2018-05-31T18:49:01.750Z,11.37
2018-05-31T18:51:30.927Z,11.80
2018-05-31T18:53:59.572Z,9.73
2018-05-31T18:56:27.727Z,19.13
2018-05-31T18:58:56.282Z,10.70
2018-05-31T19:01:24.482Z,12.90
2018-05-31T19:03:53.559Z,14.90
2018-05-31T19:06:22.722Z,15.17
2018-05-31T19:08:51.315Z,10.47
2018-05-31T19:11:19.550Z,12.03
2018-05-31T19:13:54.566Z,13.63
2018-05-31T19:16:23.824Z,13.67
2018-05-31T19:18:57.767Z,16.47
2018-05-31T19:21:26.923Z,16.07
2018-05-31T19:23:55.771Z,14.90
2018-05-31T19:26:24.924Z,14.37
2018-05-31T19:28:54.077Z,16.13
2018-05-31T19:31:22.919Z,14.93
2018-05-31T19:33:51.308Z,15.00
2018-05-31T19:36:26.222Z,15.20
2018-05-31T19:38:54.415Z,12.23
2018-05-31T19:41:22.868Z,11.50
2018-05-31T19:43:57.543Z,11.17
2018-05-31T19:46:26.499Z,13.97
2018-05-31T19:48:54.670Z,10.03
2018-05-31T19:51:28.982Z,11.13
2018-05-31T19:53:57.471Z,10.17
2018-05-31T19:56:26.556Z,12.93
2018-05-31T19:59:00.482Z,13.13
2018-05-31T20:01:34.462Z,11.07
2018-05-31T20:04:02.634Z,13.37
2018-05-31T20:06:31.274Z,13.27
2018-05-31T20:08:59.838Z,13.03
2018-05-31T20:11:28.327Z,14.60
2018-05-31T20:13:56.890Z,13.87
2018-05-31T20:16:25.720Z,13.00
2018-05-31T20:18:54.313Z,13.93
2018-05-31T20:21:22.431Z,12.73
2018-05-31T20:23:51.097Z,14.27
2018-05-31T20:26:19.486Z,12.50
2018-05-31T20:28:48.347Z,13.50
2018-05-31T20:31:17.295Z,15.50
2018-05-31T20:33:45.722Z,15.37
2018-05-31T20:36:14.979Z,15.33
2018-05-31T20:38:43.565Z,13.30
2018-05-31T20:41:13.567Z,13.43
2018-05-31T20:43:42.750Z,13.00
2018-05-31T20:46:12.010Z,14.33
2018-05-31T20:48:40.603Z,15.53
2018-05-31T20:51:09.047Z,15.80
2018-05-31T20:53:37.442Z,13.50
2018-05-31T20:56:05.900Z,15.00
2018-05-31T20:58:34.327Z,13.00
2018-05-31T21:01:02.847Z,14.53
2018-05-31T21:03:31.439Z,14.13
2018-05-31T21:05:59.626Z,15.00
2018-05-31T21:08:28.208Z,14.03
2018-05-31T21:10:56.399Z,12.27
2018-05-31T21:13:25.607Z,11.67
2018-05-31T21:15:53.759Z,12.70
2018-05-31T21:18:22.934Z,14.37
2018-05-31T21:20:52.202Z,13.00
2018-05-31T21:23:21.532Z,12.67
2018-05-31T21:25:49.987Z,13.30
2018-05-31T21:28:18.405Z,14.23
2018-05-31T21:30:46.565Z,12.00
2018-05-31T21:33:14.759Z,13.17
2018-05-31T21:35:43.605Z,12.23
2018-05-31T21:38:12.509Z,15.97
2018-05-31T21:40:41.844Z,13.27
2018-05-31T21:43:10.257Z,13.10
2018-05-31T21:45:39.444Z,13.00
2018-05-31T21:48:07.997Z,11.77
2018-05-31T21:50:36.667Z,12.70
2018-05-31T21:53:05.230Z,12.30
2018-05-31T21:55:33.390Z,12.47
2018-05-31T21:58:02.905Z,12.33
2018-05-31T22:00:31.711Z,12.53
2018-05-31T22:03:00.263Z,14.70
2018-05-31T22:05:29.739Z,13.17
2018-05-31T22:07:58.667Z,12.97
2018-05-31T22:10:29.076Z,13.90
2018-05-31T22:12:57.822Z,11.30
2018-05-31T22:15:26.453Z,12.97
2018-05-31T22:17:54.907Z,14.93
2018-05-31T22:20:23.575Z,12.77
2018-05-31T22:22:51.820Z,12.73
2018-05-31T22:25:20.345Z,10.90
2018-05-31T22:27:49.881Z,11.93
2018-05-31T22:30:18.751Z,14.80
2018-05-31T22:35:23.432Z,13.47
2018-05-31T22:37:51.688Z,12.07
2018-05-31T22:40:20.170Z,13.13
2018-05-31T22:42:48.322Z,11.80
2018-05-31T22:45:16.591Z,14.43
2018-05-31T22:47:45.162Z,13.17
2018-05-31T22:50:13.751Z,14.00
2018-05-31T22:52:42.172Z,12.57
2018-05-31T22:55:11.522Z,12.87
2018-05-31T22:57:39.730Z,12.57
2018-05-31T23:00:09.421Z,13.17
2018-05-31T23:02:38.520Z,17.80
2018-05-31T23:05:07.295Z,15.87
2018-05-31T23:07:35.482Z,13.93
2018-05-31T23:10:04.347Z,17.93
2018-05-31T23:12:32.534Z,16.07
2018-05-31T23:15:01.202Z,16.50
2018-05-31T23:17:29.833Z,14.40
2018-05-31T23:19:58.431Z,14.33
2018-05-31T23:22:27.614Z,14.67
2018-05-31T23:24:56.563Z,14.00
2018-05-31T23:27:25.292Z,13.47
2018-05-31T23:29:53.490Z,14.83
2018-05-31T23:32:21.895Z,16.77
2018-05-31T23:34:51.392Z,16.93
2018-05-31T23:37:20.182Z,16.33
2018-05-31T23:39:49.203Z,16.00
2018-05-31T23:42:18.170Z,15.50
2018-05-31T23:44:46.715Z,15.77
2018-05-31T23:47:16.286Z,17.30
2018-05-31T23:49:44.632Z,16.60
2018-05-31T23:52:14.507Z,17.37
2018-05-31T23:54:42.704Z,16.87
2018-05-31T23:57:11.151Z,17.03
2018-05-31T23:59:39.326Z,18.33
